createdAt,value
2023-01-20T00:01:31.585Z,100.00
2023-01-20T00:04:33.227Z,100.00
2023-01-20T00:07:35.976Z,100.00
2023-01-20T00:10:37.557Z,100.00
2023-01-20T00:13:39.592Z,100.00
2023-01-20T00:16:41.149Z,100.00
2023-01-20T00:19:42.923Z,100.00
2023-01-20T00:22:44.445Z,100.00
2023-01-20T00:25:46.061Z,100.00
2023-01-20T00:28:48.185Z,100.00
2023-01-20T00:31:49.676Z,100.00
2023-01-20T00:34:51.154Z,100.00
2023-01-20T00:37:52.769Z,100.00
2023-01-20T00:40:55.261Z,100.00
2023-01-20T00:43:56.732Z,100.00
2023-01-20T00:46:58.308Z,100.00
2023-01-20T00:49:59.825Z,100.00
2023-01-20T00:53:01.454Z,100.00
2023-01-20T00:56:02.993Z,100.00
2023-01-20T00:59:04.468Z,100.00
2023-01-20T01:02:06.148Z,100.00
2023-01-20T01:05:08.108Z,100.00
2023-01-20T01:08:09.712Z,100.00
2023-01-20T01:11:12.306Z,100.00
2023-01-20T01:14:13.973Z,100.00
2023-01-20T01:17:15.555Z,100.00
2023-01-20T01:20:17.458Z,100.00
2023-01-20T01:23:19.061Z,100.00
2023-01-20T01:26:20.672Z,100.00
2023-01-20T01:29:22.284Z,100.00
2023-01-20T01:32:24.251Z,100.00
2023-01-20T01:35:25.822Z,100.00
2023-01-20T01:38:28.291Z,100.00
2023-01-20T01:41:30.062Z,100.00
2023-01-20T01:44:32.413Z,100.00
2023-01-20T01:47:34.871Z,100.00
2023-01-20T01:50:41.929Z,100.00
2023-01-20T01:53:47.459Z,100.00
2023-01-20T01:56:50.957Z,100.00
2023-01-20T01:59:52.570Z,100.00
2023-01-20T02:02:55.777Z,100.00
2023-01-20T02:05:58.336Z,100.00
2023-01-20T02:09:02.365Z,100.00
2023-01-20T02:12:09.091Z,100.00
2023-01-20T02:15:11.015Z,100.00
2023-01-20T02:18:32.738Z,100.00
2023-01-20T02:21:57.581Z,100.00
2023-01-20T02:25:19.827Z,100.00
2023-01-20T02:29:11.726Z,100.00
2023-01-20T02:32:49.989Z,100.00
2023-01-20T02:36:04.185Z,100.00
2023-01-20T02:39:11.676Z,100.00
2023-01-20T02:43:02.276Z,100.00
2023-01-20T02:46:11.713Z,100.00
2023-01-20T02:49:24.053Z,100.00
2023-01-20T02:52:30.333Z,100.00
2023-01-20T02:55:44.159Z,100.00
2023-01-20T02:58:50.894Z,100.00
2023-01-20T03:01:57.299Z,100.00
2023-01-20T03:05:10.038Z,100.00
2023-01-20T03:08:14.507Z,100.00
2023-01-20T03:11:16.497Z,100.00
2023-01-20T03:14:18.179Z,100.00
2023-01-20T03:17:20.699Z,100.00
2023-01-20T03:20:22.259Z,100.00
2023-01-20T03:23:26.619Z,100.00
2023-01-20T03:26:28.377Z,100.00
2023-01-20T03:29:30.713Z,100.00
2023-01-20T03:32:32.539Z,100.00
2023-01-20T03:35:34.485Z,100.00
2023-01-20T03:38:36.396Z,100.00
2023-01-20T03:41:40.563Z,100.00
2023-01-20T03:44:48.053Z,100.00
2023-01-20T03:48:04.293Z,100.00
2023-01-20T03:51:13.915Z,100.00
2023-01-20T03:54:23.023Z,100.00
2023-01-20T03:57:31.888Z,100.00
2023-01-20T04:00:37.436Z,100.00
2023-01-20T04:03:44.492Z,100.00
2023-01-20T04:06:49.559Z,100.00
2023-01-20T04:09:56.309Z,100.00
2023-01-20T04:12:57.809Z,100.00
2023-01-20T04:16:01.886Z,100.00
2023-01-20T04:19:03.430Z,100.00
2023-01-20T04:22:22.020Z,100.00
2023-01-20T04:25:31.124Z,100.00
2023-01-20T04:28:32.561Z,100.00
2023-01-20T04:31:35.415Z,100.00
2023-01-20T04:34:37.060Z,100.00
2023-01-20T04:37:38.532Z,100.00
2023-01-20T04:40:40.051Z,100.00
2023-01-20T04:43:45.163Z,100.00
2023-01-20T04:46:47.348Z,100.00
2023-01-20T04:49:48.911Z,100.00
2023-01-20T04:52:55.135Z,100.00
2023-01-20T04:55:56.688Z,100.00
2023-01-20T04:58:58.609Z,100.00
2023-01-20T05:02:00.544Z,100.00
2023-01-20T05:05:02.112Z,100.00
2023-01-20T05:08:04.777Z,100.00
2023-01-20T05:11:06.669Z,100.00
2023-01-20T05:14:08.580Z,100.00
2023-01-20T05:17:10.071Z,100.00
2023-01-20T05:20:11.679Z,100.00
2023-01-20T05:23:13.219Z,100.00
2023-01-20T05:26:14.778Z,100.00
2023-01-20T05:29:16.362Z,100.00
2023-01-20T05:32:17.808Z,100.00
2023-01-20T05:35:19.349Z,100.00
2023-01-20T05:38:21.043Z,100.00
2023-01-20T05:41:22.580Z,100.00
2023-01-20T05:44:24.119Z,100.00
2023-01-20T05:47:25.665Z,100.00
2023-01-20T05:50:28.344Z,100.00
2023-01-20T05:53:29.891Z,100.00
2023-01-20T05:56:31.456Z,100.00
2023-01-20T05:59:33.048Z,100.00
2023-01-20T06:02:34.541Z,100.00
2023-01-20T06:05:36.051Z,100.00
2023-01-20T06:08:37.622Z,100.00
2023-01-20T06:11:39.219Z,100.00
2023-01-20T06:14:40.680Z,100.00
2023-01-20T06:17:42.193Z,100.00
2023-01-20T06:20:43.773Z,100.00
2023-01-20T06:27:06.340Z,100.00
2023-01-20T06:30:08.870Z,100.00
2023-01-20T06:33:10.897Z,100.00
2023-01-20T06:36:14.161Z,100.00
2023-01-20T06:39:15.629Z,100.00
2023-01-20T06:42:17.060Z,100.00
2023-01-20T06:45:18.845Z,100.00
2023-01-20T06:48:20.573Z,100.00
2023-01-20T06:51:22.097Z,100.00
2023-01-20T06:54:23.784Z,100.00
2023-01-20T06:57:25.361Z,100.00
2023-01-20T07:00:27.083Z,100.00
2023-01-20T07:03:28.715Z,100.00
2023-01-20T07:06:38.759Z,100.00
2023-01-20T07:09:40.323Z,100.00
2023-01-20T07:12:41.933Z,100.00
2023-01-20T07:15:43.682Z,100.00
2023-01-20T07:18:48.848Z,100.00
2023-01-20T07:21:50.371Z,100.00
2023-01-20T07:24:51.975Z,100.00
2023-01-20T07:27:53.537Z,100.00
2023-01-20T07:30:55.143Z,100.00
2023-01-20T07:33:58.124Z,100.00
2023-01-20T07:37:02.267Z,100.00
2023-01-20T07:40:04.285Z,99.39
2023-01-20T07:43:05.847Z,98.02
2023-01-20T07:46:07.718Z,97.87
2023-01-20T07:49:12.218Z,97.99
2023-01-20T07:52:14.104Z,97.49
2023-01-20T07:55:15.985Z,97.44
2023-01-20T07:58:17.634Z,96.27
2023-01-20T08:01:23.070Z,95.86
2023-01-20T08:04:24.778Z,95.38
2023-01-20T08:07:26.280Z,95.22
2023-01-20T08:10:29.262Z,96.28
2023-01-20T08:13:31.720Z,95.65
2023-01-20T08:16:33.647Z,95.53
2023-01-20T08:19:35.242Z,95.30
2023-01-20T08:22:36.747Z,94.20
2023-01-20T08:25:38.335Z,92.90
2023-01-20T08:28:40.163Z,92.76
2023-01-20T08:31:42.465Z,91.98
2023-01-20T08:34:44.097Z,91.35
2023-01-20T08:37:45.592Z,90.94
2023-01-20T08:40:47.124Z,90.16
2023-01-20T08:43:49.331Z,90.19
2023-01-20T08:46:52.693Z,89.84
2023-01-20T08:49:54.429Z,89.47
2023-01-20T08:52:55.877Z,90.00
2023-01-20T08:55:59.284Z,89.56
2023-01-20T08:59:04.414Z,88.65
2023-01-20T09:02:26.289Z,88.52
2023-01-20T09:05:27.937Z,88.18
2023-01-20T09:08:30.526Z,88.02
2023-01-20T09:11:32.113Z,87.66
2023-01-20T09:14:33.677Z,86.82
2023-01-20T09:17:36.068Z,86.04
2023-01-20T09:20:37.589Z,85.40
2023-01-20T09:23:40.340Z,84.90
2023-01-20T09:26:41.839Z,85.05
2023-01-20T09:29:43.347Z,83.71
2023-01-20T09:32:44.840Z,83.75
2023-01-20T09:35:54.163Z,82.98
2023-01-20T09:39:14.385Z,82.05
2023-01-20T09:42:50.929Z,81.41
2023-01-20T09:46:07.727Z,80.66
2023-01-20T09:49:49.987Z,80.59
2023-01-20T09:53:21.269Z,79.62
2023-01-20T09:56:27.807Z,79.50
2023-01-20T09:59:40.190Z,79.20
2023-01-20T10:02:47.994Z,79.33
2023-01-20T10:05:52.917Z,79.70
2023-01-20T10:09:06.283Z,79.06
2023-01-20T10:12:15.820Z,78.40
2023-01-20T10:15:37.237Z,77.74
2023-01-20T10:18:54.004Z,76.65
2023-01-20T10:22:13.329Z,75.96
2023-01-20T10:25:21.288Z,74.45
2023-01-20T10:28:28.481Z,72.82
2023-01-20T10:31:37.851Z,72.28
2023-01-20T10:34:46.299Z,70.71
2023-01-20T10:37:47.794Z,70.26
2023-01-20T10:41:00.235Z,69.31
2023-01-20T10:44:03.044Z,70.23
2023-01-20T10:47:40.872Z,69.16
2023-01-20T10:50:56.289Z,69.63
2023-01-20T10:54:26.710Z,71.15
2023-01-20T10:57:28.336Z,71.85
2023-01-20T11:00:32.007Z,71.81
2023-01-20T11:03:41.025Z,72.07
2023-01-20T11:06:42.869Z,71.36
2023-01-20T11:09:47.105Z,70.74
2023-01-20T11:12:50.098Z,69.46
2023-01-20T11:15:56.451Z,70.24
2023-01-20T11:19:04.133Z,69.06
2023-01-20T11:22:21.261Z,68.36
2023-01-20T11:25:25.823Z,68.52
2023-01-20T11:28:45.770Z,68.06
2023-01-20T11:31:55.051Z,68.94
2023-01-20T11:34:57.971Z,70.44
2023-01-20T11:38:20.080Z,72.61
2023-01-20T11:41:23.060Z,74.04
2023-01-20T11:44:25.190Z,74.65
2023-01-20T11:47:38.735Z,75.19
2023-01-20T11:50:45.942Z,75.91
2023-01-20T11:53:48.134Z,76.14
2023-01-20T11:56:54.649Z,76.47
2023-01-20T11:59:56.416Z,75.74
2023-01-20T12:03:24.327Z,75.73
2023-01-20T12:06:29.690Z,75.99
2023-01-20T12:09:37.589Z,75.32
2023-01-20T12:12:50.809Z,74.86
2023-01-20T12:15:55.673Z,75.06
2023-01-20T12:19:03.316Z,75.52
2023-01-20T12:22:13.567Z,74.79
2023-01-20T12:25:22.297Z,74.80
2023-01-20T12:28:51.718Z,74.95
2023-01-20T12:31:54.492Z,74.97
2023-01-20T12:34:56.149Z,74.50
2023-01-20T12:38:08.397Z,72.99
2023-01-20T12:41:34.567Z,72.72
2023-01-20T12:44:53.699Z,72.27
2023-01-20T12:48:15.472Z,71.26
2023-01-20T12:51:20.813Z,71.07
2023-01-20T12:54:47.357Z,69.25
2023-01-20T12:58:08.360Z,67.91
2023-01-20T13:01:42.914Z,67.49
2023-01-20T13:04:44.344Z,68.19
2023-01-20T13:08:09.716Z,67.38
2023-01-20T13:11:39.394Z,67.23
2023-01-20T13:14:58.657Z,67.78
2023-01-20T13:18:29.842Z,67.07
2023-01-20T13:21:33.132Z,67.25
2023-01-20T13:24:35.269Z,66.84
2023-01-20T13:27:38.361Z,66.89
2023-01-20T13:30:47.761Z,65.63
2023-01-20T13:33:49.323Z,65.65
2023-01-20T13:37:07.334Z,66.09
2023-01-20T13:40:36.532Z,66.14
2023-01-20T13:43:44.064Z,66.31
2023-01-20T13:46:47.527Z,67.68
2023-01-20T13:49:54.502Z,68.71
2023-01-20T13:53:11.304Z,68.36
2023-01-20T13:56:35.022Z,68.56
2023-01-20T13:59:37.394Z,67.35
2023-01-20T14:02:39.018Z,66.48
2023-01-20T14:05:43.364Z,66.63
2023-01-20T14:08:47.729Z,66.44
2023-01-20T14:11:50.870Z,65.23
2023-01-20T14:14:54.118Z,64.83
2023-01-20T14:17:58.400Z,64.53
2023-01-20T14:21:04.644Z,64.30
2023-01-20T14:24:06.242Z,63.95
2023-01-20T14:27:24.498Z,64.76
2023-01-20T14:30:27.612Z,65.27
2023-01-20T14:33:29.224Z,65.08
2023-01-20T14:36:33.110Z,65.69
2023-01-20T14:39:35.415Z,64.92
2023-01-20T14:42:38.727Z,62.50
2023-01-20T14:45:43.779Z,58.19
2023-01-20T14:48:46.397Z,56.48
2023-01-20T14:51:50.214Z,55.52
2023-01-20T14:54:53.018Z,54.98
2023-01-20T14:57:55.039Z,56.83
2023-01-20T15:01:01.907Z,57.69
2023-01-20T15:04:05.957Z,56.41
2023-01-20T15:07:17.862Z,55.62
2023-01-20T15:10:19.715Z,55.81
2023-01-20T15:13:23.120Z,57.87
2023-01-20T15:16:36.986Z,59.33
2023-01-20T15:19:46.207Z,60.48
2023-01-20T15:22:48.552Z,60.98
2023-01-20T15:25:51.959Z,61.34
2023-01-20T15:28:54.958Z,61.72
2023-01-20T15:31:59.010Z,62.54
2023-01-20T15:35:00.485Z,63.31
2023-01-20T15:38:02.087Z,63.63
2023-01-20T15:41:03.662Z,64.59
2023-01-20T15:44:05.821Z,66.42
2023-01-20T15:47:29.235Z,67.36
2023-01-20T15:50:31.584Z,68.37
2023-01-20T15:53:36.146Z,69.09
2023-01-20T15:56:40.989Z,69.97
2023-01-20T15:59:46.039Z,70.25
2023-01-20T16:02:47.846Z,71.36
2023-01-20T16:05:51.780Z,71.70
2023-01-20T16:08:53.542Z,71.88
2023-01-20T16:11:55.312Z,72.07
2023-01-20T16:14:57.212Z,72.33
2023-01-20T16:17:58.699Z,72.55
2023-01-20T16:21:00.208Z,72.68
2023-01-20T16:24:01.695Z,72.95
2023-01-20T16:27:11.670Z,73.99
2023-01-20T16:30:19.641Z,73.06
2023-01-20T16:33:24.336Z,73.06
2023-01-20T16:36:25.879Z,73.54
2023-01-20T16:39:27.385Z,73.48
2023-01-20T16:42:28.927Z,73.33
2023-01-20T16:45:31.473Z,73.40
2023-01-20T16:48:32.990Z,72.93
2023-01-20T16:51:34.512Z,72.90
2023-01-20T16:54:36.093Z,73.21
2023-01-20T16:57:37.835Z,73.86
2023-01-20T17:00:40.109Z,74.17
2023-01-20T17:03:42.365Z,74.45
2023-01-20T17:06:43.992Z,74.58
2023-01-20T17:10:09.024Z,74.29
2023-01-20T17:13:10.452Z,74.87
2023-01-20T17:16:12.132Z,75.12
2023-01-20T17:19:15.093Z,74.41
2023-01-20T17:22:18.146Z,74.76
2023-01-20T17:25:19.926Z,75.25
2023-01-20T17:28:21.503Z,75.27
2023-01-20T17:31:23.784Z,74.69
2023-01-20T17:34:25.485Z,74.54
2023-01-20T17:37:27.117Z,75.05
2023-01-20T17:40:28.567Z,74.91
2023-01-20T17:43:38.470Z,74.35
2023-01-20T17:46:39.991Z,75.01
2023-01-20T17:49:41.765Z,74.86
2023-01-20T17:52:43.327Z,75.73
2023-01-20T17:55:44.814Z,76.17
2023-01-20T17:58:47.306Z,77.09
2023-01-20T18:01:52.302Z,77.65
2023-01-20T18:04:53.848Z,77.66
2023-01-20T18:07:55.355Z,79.15
2023-01-20T18:11:05.380Z,80.21
2023-01-20T18:14:07.548Z,81.48
2023-01-20T18:17:09.138Z,82.60
2023-01-20T18:20:12.071Z,84.09
2023-01-20T18:23:13.598Z,84.49
2023-01-20T18:26:16.840Z,84.39
2023-01-20T18:29:18.323Z,84.24
2023-01-20T18:32:19.862Z,85.64
2023-01-20T18:35:21.371Z,84.80
2023-01-20T18:38:22.964Z,85.44
2023-01-20T18:41:26.842Z,85.97
2023-01-20T18:44:28.329Z,86.71
2023-01-20T18:47:29.885Z,86.85
2023-01-20T18:50:31.407Z,86.34
2023-01-20T18:53:33.230Z,86.23
2023-01-20T18:56:35.383Z,85.74
2023-01-20T18:59:36.864Z,85.35
2023-01-20T19:02:38.508Z,85.64
2023-01-20T19:05:40.061Z,85.94
2023-01-20T19:08:43.124Z,85.94
2023-01-20T19:11:44.691Z,86.41
2023-01-20T19:14:46.275Z,86.74
2023-01-20T19:17:47.863Z,88.42
2023-01-20T19:20:49.706Z,88.59
2023-01-20T19:23:56.742Z,88.51
2023-01-20T19:27:00.301Z,87.41
2023-01-20T19:30:01.969Z,87.59
2023-01-20T19:33:03.903Z,87.64
2023-01-20T19:36:07.932Z,87.21
2023-01-20T19:39:09.339Z,86.27
2023-01-20T19:42:11.824Z,86.25
2023-01-20T19:45:13.563Z,87.63
2023-01-20T19:48:15.181Z,87.79
2023-01-20T19:51:17.329Z,88.92
2023-01-20T19:54:18.920Z,89.60
2023-01-20T19:57:20.511Z,90.39
2023-01-20T20:00:22.163Z,91.44
2023-01-20T20:03:23.800Z,91.09
2023-01-20T20:06:25.380Z,91.65
2023-01-20T20:09:27.592Z,90.52
2023-01-20T20:12:29.200Z,89.88
2023-01-20T20:15:30.862Z,88.89
2023-01-20T20:18:32.402Z,88.57
2023-01-20T20:21:34.233Z,88.19
2023-01-20T20:24:35.931Z,87.75
2023-01-20T20:27:37.515Z,87.06
2023-01-20T20:30:42.127Z,86.92
2023-01-20T20:33:46.075Z,86.91
2023-01-20T20:36:47.973Z,87.45
2023-01-20T20:39:51.508Z,87.13
2023-01-20T20:42:52.972Z,87.87
2023-01-20T20:45:54.637Z,88.21
2023-01-20T20:49:01.347Z,88.63
2023-01-20T20:52:02.936Z,89.44
2023-01-20T20:55:05.544Z,90.27
2023-01-20T20:58:07.583Z,90.33
2023-01-20T21:01:16.402Z,90.69
2023-01-20T21:04:18.016Z,91.12
2023-01-20T21:07:19.509Z,91.68
2023-01-20T21:10:21.169Z,92.11
2023-01-20T21:13:23.526Z,92.89
2023-01-20T21:16:26.257Z,92.06
2023-01-20T21:19:27.792Z,91.65
2023-01-20T21:22:29.609Z,91.08
2023-01-20T21:25:31.473Z,91.65
2023-01-20T21:28:35.586Z,91.26
2023-01-20T21:31:37.111Z,90.28
2023-01-20T21:34:38.742Z,90.07
2023-01-20T21:37:40.237Z,89.79
2023-01-20T21:40:44.792Z,88.89
2023-01-20T21:44:06.366Z,89.06
2023-01-20T21:47:08.113Z,88.50
2023-01-20T21:50:29.527Z,89.49
2023-01-20T21:53:30.997Z,89.93
2023-01-20T21:56:32.599Z,89.79
2023-01-20T21:59:34.113Z,89.18
2023-01-20T22:02:35.878Z,88.42
2023-01-20T22:05:38.621Z,87.68
2023-01-20T22:08:40.178Z,86.88
2023-01-20T22:11:41.745Z,86.96
2023-01-20T22:14:43.476Z,86.77
2023-01-20T22:17:45.407Z,86.63
2023-01-20T22:21:21.660Z,87.84
2023-01-20T22:24:23.540Z,88.37
2023-01-20T22:27:25.046Z,89.86
2023-01-20T22:30:26.652Z,90.34
2023-01-20T22:33:28.169Z,89.87
2023-01-20T22:36:29.767Z,90.20
2023-01-20T22:39:31.385Z,90.67
2023-01-20T22:42:34.084Z,91.00
2023-01-20T22:45:35.574Z,91.54
2023-01-20T22:48:37.221Z,92.03
2023-01-20T22:51:39.027Z,92.99
2023-01-20T22:54:40.573Z,92.88
2023-01-20T22:57:42.123Z,91.87
2023-01-20T23:00:43.849Z,91.98
2023-01-20T23:03:46.169Z,91.09
2023-01-20T23:06:47.703Z,90.54
2023-01-20T23:09:50.035Z,91.12
2023-01-20T23:12:51.865Z,91.10
2023-01-20T23:15:53.603Z,92.29
2023-01-20T23:18:55.154Z,92.00
2023-01-20T23:21:56.794Z,92.99
2023-01-20T23:24:58.329Z,92.66
2023-01-20T23:27:59.887Z,93.55
2023-01-20T23:31:04.543Z,94.06
2023-01-20T23:34:06.134Z,94.39
2023-01-20T23:37:07.824Z,94.01
2023-01-20T23:40:10.306Z,93.61
2023-01-20T23:43:11.849Z,93.46
2023-01-20T23:46:13.561Z,93.37
2023-01-20T23:49:15.234Z,92.74
2023-01-20T23:52:16.987Z,91.84
2023-01-20T23:55:18.528Z,92.18
2023-01-20T23:58:20.112Z,92.34
